• Join FlightAware (Why Join?)
  • Login
  • US Flag GB Flag 
09:05 EDT


 

Airport Tracker/Info


-or-


 

Live Flight TrackerFlight Track Log ✈ N27XP ✈ 01-Oct-2013 ✈ KIPJ - KSOP

Flight Track Log - Related Links

Times and Time Zones

All times are in EDT time to prevent confusion due to time zone crossing. See the N27XP flight status page for this flight to view local times or setup timezone preferences in your user account.

Time Position Orientation Groundspeed Altitude Reporting Facility
EDT Latitude Longitude Course Direction KTS MPH feet Rate Location/Type
19:12 35.5247 -81.0278 87° East 277 319 3,000  Level Atlanta Center
19:12 35.5261 -80.9997 87° East 279 321 3,000 1,320 Level Atlanta Center
19:13 35.5217 -80.9028 93° East 272 313 4,800 960 Climbing Atlanta Center
19:14 35.5131 -80.8086 96° East 279 321 5,000 540 Climbing Atlanta Center
19:15 35.4900 -80.7228 108° East 267 307 5,900 900 Climbing Atlanta Center
19:16 35.4667 -80.6319 107° East 274 315 6,900 480 Climbing Atlanta Center
19:18 35.4403 -80.5158 106° East 290 334 7,100  Climbing Atlanta Center
19:19 35.4214 -80.4378 107° East 288 331 6,900 -60 Descending Atlanta Center
19:20 35.3972 -80.3267 105° East 291 335 7,000 60 Climbing Atlanta Center
19:22 35.3778 -80.2557 109° East  Level FlightAware Approximate
19:29 35.3167 -79.9738 90° East  Level FlightAware Approximate
19:30 35.3145 -79.9325 99° East  Level FlightAware Approximate
19:31 35.3094 -79.8914 99° East  Level FlightAware Approximate
19:32 35.3042 -79.8504 99° East  Level FlightAware Approximate
19:33 35.2984 -79.8095 105° East  Level FlightAware Approximate
19:34 35.2895 -79.7694 105° East  Level FlightAware Approximate
19:35 35.2806 -79.7294 105° East  Level FlightAware Approximate
19:36 35.2717 -79.6893 105° East  Level FlightAware Approximate
19:37 35.2667 -79.6487 90° East  Level FlightAware Approximate
19:38 35.2667 -79.6071 90° East  Level FlightAware Approximate
19:39 35.2520 -79.5707 121° Southeast  Level FlightAware Approximate
19:40 35.2448 -79.5304 100° East  Level FlightAware Approximate
19:41 35.2390 -79.4895 100° East  Level FlightAware Approximate
19:42 35.2333 -79.4486 90° East  Level FlightAware Approximate
19:43 35.2333 -79.4072 90° East  Level FlightAware Approximate
19:44 35.2333 -79.3833 90° East  Level FlightAware Approximate
19:45 35.2380 -79.3883 90° East  Level Estimated
19:46 35.2333 -79.3833 90° East  Level FlightAware Approximate
19:47 35.2380 -79.3883 90° East  Level Estimated
19:48 35.2333 -79.3833 90° East  Level FlightAware Approximate
19:49 35.2380 -79.3883 90° East  Level Estimated
19:50 35.2333 -79.3833 90° East  Level FlightAware Approximate
19:51 35.2380 -79.3883 90° East  Level Estimated
19:52 35.2333 -79.3833 90° East  Level FlightAware Approximate
19:53 35.2380 -79.3883 90° East  Level Estimated
19:54 35.2333 -79.3833 90° East  Level FlightAware Approximate
19:55 35.2380 -79.3883 90° East  Level Estimated
19:56 35.2333 -79.3833 90° East  Level FlightAware Approximate
19:57 35.2380 -79.3883 90° East  Level Estimated
19:58 35.2333 -79.3833 90° East  Level FlightAware Approximate
19:59 35.2380 -79.3883 90° East  Level Estimated
20:00 35.2333 -79.3833 90° East  Level FlightAware Approximate
20:01 35.2380 -79.3883 90° East  Level Estimated
20:02 35.2333 -79.3833 90° East  Level FlightAware Approximate
20:03 35.2380 -79.3883 90° East  Level Estimated
20:04 35.2333 -79.3833 90° East  Level FlightAware Approximate